Terminal Aerodrome Forecast
Issued by NWS Shreveport, LA

Current Version | Previous Version | Text Only | Print | Product List | Glossary On
Versions: 1 2 3 4 5 6 7 8 9 10 11 12 13 14 15 16 17
000
FTUS44 KSHV 300526
TAFTXK
TAF
KTXK 300526Z 3006/3106 21006KT P6SM VCSH BKN080
     FM300800 22004KT P6SM SCT070
     FM301500 22005KT P6SM OVC050
     FM302100 07004KT P6SM SCT050 BKN100=

USA.gov is the U.S. government's official web portal to all federal, state and local government web resources and services.